F/V Mare Liberum — FVHW — position and weather

sailwx.info

Track history (hours):
 
Tides and Currents Weather Stations Pressure Air Temp Water Temp Dewpoint Dewpoint Depression Visibility Wind Speed Wind Dir Waves Ship Positions

F/V Mare Liberum

Last reported at 2015-Jul-30 13:33 UTC. Time now 2015-Aug-04 23:55 UTC.
Position N 46°30' W 001°47'.

Length 21 m.

Type: Fishing. MMSI: 227426000.

Date/timePositionNaut miles runAvg speedWind from/ knotsBaromVisibWave heightAir tempDewpointWater temp
2015-Jul-30 13:33N 46°30' W 001°47'0 0.1
2015-Jul-30 12:33N 46°30' W 001°48'4 4.1
2015-Jul-30 11:33N 46°30' W 001°54'9 8.7
2015-Jul-30 10:33N 46°36' W 002°02'7 4.8
2015-Jul-30 09:04N 46°42' W 002°09'3 5.3
2015-Jul-30 08:32N 46°44' W 002°12'19 6.1
2015-Jul-30 05:30N 47°01' W 002°20'2 1.6
2015-Jul-30 04:29N 47°01' W 002°18'0 0.0
2015-Jul-30 03:23N 47°01' W 002°18'0 0.0
2015-Jul-30 02:32N 47°01' W 002°18'0 0.0
2015-Jul-30 01:30N 47°01' W 002°18'0 0.0
2015-Jul-30 00:33N 47°01' W 002°18'0 0.0
2015-Jul-29 23:32N 47°01' W 002°18'  
2015-Jul-27 09:11N 46°53' W 003°14'39 1.5
2015-Jul-26 06:27N 47°01' W 002°18'0 0.0
2015-Jul-26 04:27N 47°01' W 002°18'0 0.0
2015-Jul-26 02:24N 47°01' W 002°18'0 0.0
2015-Jul-26 01:32N 47°01' W 002°18'0 0.0
2015-Jul-26 00:33N 47°01' W 002°18'0 0.0
2015-Jul-25 23:33N 47°01' W 002°18'0 0.0
2015-Jul-25 22:32N 47°01' W 002°18'0 0.0
2015-Jul-25 21:33N 47°01' W 002°18'0 0.0
2015-Jul-25 20:33N 47°01' W 002°18'0 0.0
2015-Jul-25 19:33N 47°01' W 002°18'22 0.6
2015-Jul-24 06:15N 46°53' W 002°47'2 3.0
2015-Jul-24 05:28N 46°51' W 002°49'2 2.3
2015-Jul-24 04:32N 46°50' W 002°52'1 0.5
2015-Jul-24 03:21N 46°50' W 002°52'0 0.1
2015-Jul-24 02:25N 46°50' W 002°53'0 0.1
2015-Jul-24 01:15N 46°50' W 002°53'0 0.0
2015-Jul-24 00:31N 46°50' W 002°53'0 0.0
2015-Jul-23 23:33N 46°50' W 002°53'0 0.1
2015-Jul-23 22:33N 46°50' W 002°53'0 0.0
2015-Jul-23 21:33N 46°50' W 002°53'0 0.0
2015-Jul-23 19:27N 46°50' W 002°52'25 1.2
2015-Jul-22 22:22N 47°02' W 002°20'1 1.4
2015-Jul-22 21:23N 47°01' W 002°18'0 0.0
2015-Jul-22 06:33N 47°01' W 002°18'0 0.0
2015-Jul-22 05:25N 47°01' W 002°18'0 0.0
2015-Jul-22 04:31N 47°01' W 002°18'0 0.0
2015-Jul-22 03:30N 47°01' W 002°18'0 0.0
2015-Jul-22 02:25N 47°01' W 002°18'0 0.0
2015-Jul-22 01:30N 47°01' W 002°18'0 0.0
2015-Jul-22 00:20N 47°01' W 002°18'0 0.0
2015-Jul-21 23:28N 47°01' W 002°18'0 0.0
2015-Jul-21 22:26N 47°01' W 002°18'0 0.0
2015-Jul-21 21:33N 47°01' W 002°18'0 0.0
2015-Jul-21 20:33N 47°01' W 002°18'0 0.0
2015-Jul-21 19:33N 47°01' W 002°18'0 0.0
2015-Jul-21 17:22N 47°01' W 002°18'0 0.0
2015-Jul-21 16:26N 47°01' W 002°18'0 0.1
2015-Jul-21 15:27N 47°02' W 002°18'3 3.4
2015-Jul-21 14:31N 47°01' W 002°22'20 9.1
2015-Jul-21 12:21N 46°52' W 002°49'0 0.2
2015-Jul-21 10:13N 46°53' W 002°49'4 2.2
2015-Jul-21 08:15N 46°49' W 002°51'3 1.5
2015-Jul-21 06:19N 46°51' W 002°49'2 2.1
2015-Jul-21 05:33N 46°50' W 002°50'4 3.4
2015-Jul-21 04:27N 46°49' W 002°56'0 0.2
2015-Jul-21 03:20N 46°49' W 002°56'0 0.0
2015-Jul-21 02:29N 46°49' W 002°56'0 0.1
2015-Jul-21 00:27N 46°49' W 002°56'0 0.1
2015-Jul-20 23:29N 46°49' W 002°56'0 0.1
2015-Jul-20 22:32N 46°49' W 002°56'0 0.0
2015-Jul-20 21:33N 46°49' W 002°56'0 0.1
2015-Jul-20 19:32N 46°49' W 002°56'0 0.1
2015-Jul-20 18:31N 46°49' W 002°55'0 0.1
2015-Jul-20 17:17N 46°49' W 002°55'4 5.6
2015-Jul-20 16:32N 46°49' W 003°02'4 1.7
2015-Jul-20 14:14N 46°52' W 003°06'  
Track history (hours):
 
Tides and Currents Weather Stations Pressure Air Temp Water Temp Dewpoint Dewpoint Depression Visibility Wind Speed Wind Dir Waves Ship Positions

F/V Mare Liberum

Last reported at 2015-Jul-30 13:33 UTC. Time now 2015-Aug-04 23:55 UTC.
Position N 46°30' W 001°47'.

Length 21 m.

Type: Fishing. MMSI: 227426000.

Date/timePositionNaut miles runAvg speedWind from/ knotsBaromVisibWave heightAir tempDewpointWater temp
2015-Jul-30 13:33N 46°30' W 001°47'0 0.1
2015-Jul-30 12:33N 46°30' W 001°48'4 4.1
2015-Jul-30 11:33N 46°30' W 001°54'9 8.7
2015-Jul-30 10:33N 46°36' W 002°02'7 4.8
2015-Jul-30 09:04N 46°42' W 002°09'3 5.3
2015-Jul-30 08:32N 46°44' W 002°12'19 6.1
2015-Jul-30 05:30N 47°01' W 002°20'2 1.6
2015-Jul-30 04:29N 47°01' W 002°18'0 0.0
2015-Jul-30 03:23N 47°01' W 002°18'0 0.0
2015-Jul-30 02:32N 47°01' W 002°18'0 0.0
2015-Jul-30 01:30N 47°01' W 002°18'0 0.0
2015-Jul-30 00:33N 47°01' W 002°18'0 0.0
2015-Jul-29 23:32N 47°01' W 002°18'  
2015-Jul-27 09:11N 46°53' W 003°14'39 1.5
2015-Jul-26 06:27N 47°01' W 002°18'0 0.0
2015-Jul-26 04:27N 47°01' W 002°18'0 0.0
2015-Jul-26 02:24N 47°01' W 002°18'0 0.0
2015-Jul-26 01:32N 47°01' W 002°18'0 0.0
2015-Jul-26 00:33N 47°01' W 002°18'0 0.0
2015-Jul-25 23:33N 47°01' W 002°18'0 0.0
2015-Jul-25 22:32N 47°01' W 002°18'0 0.0
2015-Jul-25 21:33N 47°01' W 002°18'0 0.0
2015-Jul-25 20:33N 47°01' W 002°18'0 0.0
2015-Jul-25 19:33N 47°01' W 002°18'22 0.6
2015-Jul-24 06:15N 46°53' W 002°47'2 3.0
2015-Jul-24 05:28N 46°51' W 002°49'2 2.3
2015-Jul-24 04:32N 46°50' W 002°52'1 0.5
2015-Jul-24 03:21N 46°50' W 002°52'0 0.1
2015-Jul-24 02:25N 46°50' W 002°53'0 0.1
2015-Jul-24 01:15N 46°50' W 002°53'0 0.0
2015-Jul-24 00:31N 46°50' W 002°53'0 0.0
2015-Jul-23 23:33N 46°50' W 002°53'0 0.1
2015-Jul-23 22:33N 46°50' W 002°53'0 0.0
2015-Jul-23 21:33N 46°50' W 002°53'0 0.0
2015-Jul-23 19:27N 46°50' W 002°52'25 1.2
2015-Jul-22 22:22N 47°02' W 002°20'1 1.4
2015-Jul-22 21:23N 47°01' W 002°18'0 0.0
2015-Jul-22 06:33N 47°01' W 002°18'0 0.0
2015-Jul-22 05:25N 47°01' W 002°18'0 0.0
2015-Jul-22 04:31N 47°01' W 002°18'0 0.0
2015-Jul-22 03:30N 47°01' W 002°18'0 0.0
2015-Jul-22 02:25N 47°01' W 002°18'0 0.0
2015-Jul-22 01:30N 47°01' W 002°18'0 0.0
2015-Jul-22 00:20N 47°01' W 002°18'0 0.0
2015-Jul-21 23:28N 47°01' W 002°18'0 0.0
2015-Jul-21 22:26N 47°01' W 002°18'0 0.0
2015-Jul-21 21:33N 47°01' W 002°18'0 0.0
2015-Jul-21 20:33N 47°01' W 002°18'0 0.0
2015-Jul-21 19:33N 47°01' W 002°18'0 0.0
2015-Jul-21 17:22N 47°01' W 002°18'0 0.0
2015-Jul-21 16:26N 47°01' W 002°18'0 0.1
2015-Jul-21 15:27N 47°02' W 002°18'3 3.4
2015-Jul-21 14:31N 47°01' W 002°22'20 9.1
2015-Jul-21 12:21N 46°52' W 002°49'0 0.2
2015-Jul-21 10:13N 46°53' W 002°49'4 2.2
2015-Jul-21 08:15N 46°49' W 002°51'3 1.5
2015-Jul-21 06:19N 46°51' W 002°49'2 2.1
2015-Jul-21 05:33N 46°50' W 002°50'4 3.4
2015-Jul-21 04:27N 46°49' W 002°56'0 0.2
2015-Jul-21 03:20N 46°49' W 002°56'0 0.0
2015-Jul-21 02:29N 46°49' W 002°56'0 0.1
2015-Jul-21 00:27N 46°49' W 002°56'0 0.1
2015-Jul-20 23:29N 46°49' W 002°56'0 0.1
2015-Jul-20 22:32N 46°49' W 002°56'0 0.0
2015-Jul-20 21:33N 46°49' W 002°56'0 0.1
2015-Jul-20 19:32N 46°49' W 002°56'0 0.1
2015-Jul-20 18:31N 46°49' W 002°55'0 0.1
2015-Jul-20 17:17N 46°49' W 002°55'4 5.6
2015-Jul-20 16:32N 46°49' W 003°02'4 1.7
2015-Jul-20 14:14N 46°52' W 003°06'  

Dump ship's entire track history